< < Back
Terminal Aerodrome Forecast


Current Version              Previous Versions:   1  2  3  4  5  6  7  8  9  

Terminal Aerodrome Forecast

179
FTUS42 KCAE 300200 AAA
TAFCAE
TAF AMD
KCAE 300226Z 3002/3024 VRB05KT P6SM SCT080=



Latest METAR

572
SAUS80 KWBC 300500 RRA
MTRCAE
METAR KCAE 300456Z 00000KT 10SM FEW080 22/16 A2997 RMK AO2 SLP145
T02170156 403280217


USA.gov is the U.S. government's official web portal to all federal, state and local government web resources and services.